PWSweather.com
Personal Weather Stations
Station Observations
HASBROUCK
Northern New Jersey, Hasbrouck Heights, NJ 07604

Northern New JerseyHasbrouck Heights, NJ 07604

Lat: 40.8563, Lon: -74.08453

Elevation: 160

Station Type: Davis Vantage Pro2 Plus

http://heightsweather.info

High Low Average
Temperature 87.6°F30.9°C 68.4°F20.2°C 78.4°F25.8°C
Dew Point 71.6°F22.0°C 65.3°F18.5°C 68.1°F20.1°C
Winds 6.9 mph 11.1 kmh Calm Calm 3.0 mph WSW4.8 kmh WSW
Wind Gusts 15.0 mph24.1 kmh 1.2 mph1.9 kmh 6.0 mph9.7 kmh
Humidity 92% 51% 72%
Pressure 29.94 in1013.9 mb 29.80 in1009.1 mb -
Precipitation 0.00 in0.0 mm - -
Hour Temp Dew Point Humidity Winds Wind Gusts Pressure Precip Precip Rate Daily Precip Total
12:00 AM 70.2°F21.2°C 66.8°F19.3°C 89% 2.3 mph SW3.7 kmh SW 3.5 mph5.6 kmh 29.81 in1009.5 mb - 0.00 in0.0 mm 0.00 in0.0 mm
12:15 AM 70.2°F21.2°C 66.8°F19.3°C 89% 1.2 mph SW1.9 kmh SW 3.5 mph5.6 kmh 29.81 in1009.5 mb - 0.00 in0.0 mm 0.00 in0.0 mm
12:30 AM 70.3°F21.3°C 66.9°F19.4°C 89% 3.5 mph SW5.6 kmh SW 8.1 mph13.0 kmh 29.81 in1009.5 mb - 0.00 in0.0 mm 0.00 in0.0 mm
12:45 AM 70.2°F21.2°C 66.8°F19.3°C 89% 2.3 mph SW3.7 kmh SW 9.2 mph14.8 kmh 29.81 in1009.5 mb - 0.00 in0.0 mm 0.00 in0.0 mm
01:00 AM 70.0°F21.1°C 66.6°F19.2°C 89% 3.5 mph SW5.6 kmh SW 5.8 mph9.3 kmh 29.81 in1009.5 mb - 0.00 in0.0 mm 0.00 in0.0 mm
01:15 AM 70.0°F21.1°C 66.6°F19.2°C 89% 2.3 mph SW3.7 kmh SW 3.5 mph5.6 kmh 29.81 in1009.5 mb - 0.00 in0.0 mm 0.00 in0.0 mm
01:30 AM 70.0°F21.1°C 66.6°F19.2°C 89% 3.5 mph SW5.6 kmh SW 5.8 mph9.3 kmh 29.81 in1009.5 mb - 0.00 in0.0 mm 0.00 in0.0 mm
01:45 AM 70.0°F21.1°C 66.6°F19.2°C 89% 2.3 mph SW3.7 kmh SW 3.5 mph5.6 kmh 29.81 in1009.5 mb - 0.00 in0.0 mm 0.00 in0.0 mm
02:00 AM 69.9°F21.1°C 66.5°F19.2°C 89% 2.3 mph SW3.7 kmh SW 4.6 mph7.4 kmh 29.81 in1009.5 mb - 0.00 in0.0 mm 0.00 in0.0 mm
02:15 AM 69.8°F21.0°C 66.4°F19.1°C 89% 3.5 mph WSW5.6 kmh WSW 4.6 mph7.4 kmh 29.81 in1009.5 mb - 0.00 in0.0 mm 0.00 in0.0 mm
02:30 AM 69.7°F20.9°C 66.6°F19.2°C 90% 4.6 mph SW7.4 kmh SW 6.9 mph11.1 kmh 29.80 in1009.1 mb - 0.00 in0.0 mm 0.00 in0.0 mm
02:45 AM 69.5°F20.8°C 66.1°F18.9°C 89% 2.3 mph SW3.7 kmh SW 3.5 mph5.6 kmh 29.80 in1009.1 mb - 0.00 in0.0 mm 0.00 in0.0 mm
03:00 AM 69.1°F20.6°C 66.1°F18.9°C 90% 2.3 mph SW3.7 kmh SW 3.5 mph5.6 kmh 29.80 in1009.1 mb - 0.00 in0.0 mm 0.00 in0.0 mm
03:15 AM 69.0°F20.6°C 65.9°F18.8°C 90% 2.3 mph SW3.7 kmh SW 3.5 mph5.6 kmh 29.80 in1009.1 mb - 0.00 in0.0 mm 0.00 in0.0 mm
03:30 AM 68.8°F20.4°C 66.1°F18.9°C 91% 2.3 mph SW3.7 kmh SW 5.8 mph9.3 kmh 29.80 in1009.1 mb - 0.00 in0.0 mm 0.00 in0.0 mm
03:45 AM 68.6°F20.3°C 65.9°F18.8°C 91% Calm Calm 3.5 mph5.6 kmh 29.80 in1009.1 mb - 0.00 in0.0 mm 0.00 in0.0 mm
04:00 AM 68.5°F20.3°C 65.7°F18.7°C 91% 1.2 mph SW1.9 kmh SW 4.6 mph7.4 kmh 29.80 in1009.1 mb - 0.00 in0.0 mm 0.00 in0.0 mm
04:15 AM 68.4°F20.2°C 66.0°F18.9°C 92% 2.3 mph SW3.7 kmh SW 3.5 mph5.6 kmh 29.80 in1009.1 mb - 0.00 in0.0 mm 0.00 in0.0 mm
04:30 AM 68.4°F20.2°C 65.7°F18.7°C 91% 3.5 mph SW5.6 kmh SW 4.6 mph7.4 kmh 29.80 in1009.1 mb - 0.00 in0.0 mm 0.00 in0.0 mm
04:45 AM 68.5°F20.3°C 65.8°F18.8°C 91% 3.5 mph SW5.6 kmh SW 4.6 mph7.4 kmh 29.80 in1009.1 mb - 0.00 in0.0 mm 0.00 in0.0 mm
05:00 AM 68.4°F20.2°C 65.7°F18.7°C 91% 2.3 mph SW3.7 kmh SW 4.6 mph7.4 kmh 29.80 in1009.1 mb - 0.00 in0.0 mm 0.00 in0.0 mm
05:15 AM 68.7°F20.4°C 65.7°F18.7°C 90% 1.2 mph WSW1.9 kmh WSW 2.3 mph3.7 kmh 29.80 in1009.1 mb - 0.00 in0.0 mm 0.00 in0.0 mm
05:30 AM 69.0°F20.6°C 65.6°F18.7°C 89% 1.2 mph SW1.9 kmh SW 2.3 mph3.7 kmh 29.81 in1009.5 mb - 0.00 in0.0 mm 0.00 in0.0 mm
05:45 AM 68.9°F20.5°C 65.6°F18.7°C 89% Calm Calm 1.2 mph1.9 kmh 29.81 in1009.5 mb - 0.00 in0.0 mm 0.00 in0.0 mm
06:00 AM 68.8°F20.4°C 65.4°F18.6°C 89% Calm Calm 2.3 mph3.7 kmh 29.81 in1009.5 mb - 0.00 in0.0 mm 0.00 in0.0 mm
06:15 AM 68.7°F20.4°C 65.3°F18.5°C 89% 1.2 mph WNW1.9 kmh WNW 3.5 mph5.6 kmh 29.82 in1009.8 mb - 0.00 in0.0 mm 0.00 in0.0 mm
06:30 AM 68.7°F20.4°C 65.3°F18.5°C 89% Calm Calm 1.2 mph1.9 kmh 29.82 in1009.8 mb - 0.00 in0.0 mm 0.00 in0.0 mm
06:45 AM 68.9°F20.5°C 65.5°F18.6°C 89% Calm Calm 1.2 mph1.9 kmh 29.83 in1010.2 mb - 0.00 in0.0 mm 0.00 in0.0 mm
07:00 AM 69.4°F20.8°C 65.7°F18.7°C 88% 1.2 mph WNW1.9 kmh WNW 3.5 mph5.6 kmh 29.83 in1010.2 mb - 0.00 in0.0 mm 0.00 in0.0 mm
07:15 AM 70.1°F21.2°C 66.0°F18.9°C 87% Calm Calm 3.5 mph5.6 kmh 29.84 in1010.5 mb - 0.00 in0.0 mm 0.00 in0.0 mm
07:30 AM 71.2°F21.8°C 66.5°F19.2°C 85% 1.2 mph WSW1.9 kmh WSW 1.2 mph1.9 kmh 29.84 in1010.5 mb - 0.00 in0.0 mm 0.00 in0.0 mm
07:45 AM 71.9°F22.2°C 66.8°F19.3°C 84% Calm Calm 2.3 mph3.7 kmh 29.84 in1010.5 mb - 0.00 in0.0 mm 0.00 in0.0 mm
08:00 AM 72.2°F22.3°C 66.8°F19.3°C 83% Calm Calm 1.2 mph1.9 kmh 29.84 in1010.5 mb - 0.00 in0.0 mm 0.00 in0.0 mm
08:15 AM 72.7°F22.6°C 66.9°F19.4°C 82% 1.2 mph SW1.9 kmh SW 3.5 mph5.6 kmh 29.85 in1010.8 mb - 0.00 in0.0 mm 0.00 in0.0 mm
08:30 AM 73.2°F22.9°C 67.4°F19.7°C 82% 2.3 mph NW3.7 kmh NW 5.8 mph9.3 kmh 29.86 in1011.2 mb - 0.00 in0.0 mm 0.00 in0.0 mm
08:45 AM 73.8°F23.2°C 67.6°F19.8°C 81% 3.5 mph WNW5.6 kmh WNW 9.2 mph14.8 kmh 29.86 in1011.2 mb - 0.00 in0.0 mm 0.00 in0.0 mm
09:00 AM 74.6°F23.7°C 68.0°F20.0°C 80% 5.8 mph WNW9.3 kmh WNW 8.1 mph13.0 kmh 29.86 in1011.2 mb - 0.00 in0.0 mm 0.00 in0.0 mm
09:15 AM 75.2°F24.0°C 67.9°F19.9°C 78% 5.8 mph NW9.3 kmh NW 11.5 mph18.5 kmh 29.86 in1011.2 mb - 0.00 in0.0 mm 0.00 in0.0 mm
09:30 AM 75.9°F24.4°C 68.1°F20.1°C 77% 3.5 mph WSW5.6 kmh WSW 3.5 mph5.6 kmh 29.86 in1011.2 mb - 0.00 in0.0 mm 0.00 in0.0 mm
09:45 AM 76.3°F24.6°C 67.8°F19.9°C 75% 3.5 mph WNW5.6 kmh WNW 6.9 mph11.1 kmh 29.86 in1011.2 mb - 0.00 in0.0 mm 0.00 in0.0 mm
10:00 AM 77.1°F25.1°C 68.2°F20.1°C 74% 3.5 mph WSW5.6 kmh WSW 4.6 mph7.4 kmh 29.86 in1011.2 mb - 0.00 in0.0 mm 0.00 in0.0 mm
10:15 AM 78.2°F25.7°C 68.8°F20.4°C 73% 2.3 mph NNW3.7 kmh NNW 3.5 mph5.6 kmh 29.87 in1011.5 mb - 0.00 in0.0 mm 0.00 in0.0 mm
10:30 AM 78.9°F26.1°C 68.7°F20.4°C 71% 2.3 mph WNW3.7 kmh WNW 9.2 mph14.8 kmh 29.87 in1011.5 mb - 0.00 in0.0 mm 0.00 in0.0 mm
10:45 AM 79.6°F26.4°C 68.9°F20.5°C 70% 5.8 mph NW9.3 kmh NW 9.2 mph14.8 kmh 29.87 in1011.5 mb - 0.00 in0.0 mm 0.00 in0.0 mm
11:00 AM 80.4°F26.9°C 68.9°F20.5°C 68% 2.3 mph WSW3.7 kmh WSW 5.8 mph9.3 kmh 29.87 in1011.5 mb - 0.00 in0.0 mm 0.00 in0.0 mm
11:15 AM 81.8°F27.7°C 68.4°F20.2°C 64% 3.5 mph SW5.6 kmh SW 11.5 mph18.5 kmh 29.87 in1011.5 mb - 0.00 in0.0 mm 0.00 in0.0 mm
11:30 AM 82.9°F28.3°C 69.0°F20.6°C 63% 2.3 mph WSW3.7 kmh WSW 6.9 mph11.1 kmh 29.87 in1011.5 mb - 0.00 in0.0 mm 0.00 in0.0 mm
11:45 AM 83.4°F28.6°C 69.9°F21.1°C 64% 4.6 mph W7.4 kmh W 10.4 mph16.7 kmh 29.87 in1011.5 mb - 0.00 in0.0 mm 0.00 in0.0 mm
12:00 PM 84.7°F29.3°C 71.6°F22.0°C 65% 4.6 mph WNW7.4 kmh WNW 9.2 mph14.8 kmh 29.87 in1011.5 mb - 0.00 in0.0 mm 0.00 in0.0 mm
12:15 PM 84.6°F29.2°C 70.6°F21.4°C 63% 2.3 mph WSW3.7 kmh WSW 8.1 mph13.0 kmh 29.87 in1011.5 mb - 0.00 in0.0 mm 0.00 in0.0 mm
12:30 PM 84.9°F29.4°C 70.0°F21.1°C 61% 2.3 mph NW3.7 kmh NW 3.5 mph5.6 kmh 29.88 in1011.9 mb - 0.00 in0.0 mm 0.00 in0.0 mm
12:45 PM 85.3°F29.6°C 69.9°F21.1°C 60% 6.9 mph NW11.1 kmh NW 15.0 mph24.1 kmh 29.88 in1011.9 mb - 0.00 in0.0 mm 0.00 in0.0 mm
01:00 PM 85.7°F29.8°C 70.3°F21.3°C 60% 2.3 mph WSW3.7 kmh WSW 6.9 mph11.1 kmh 29.88 in1011.9 mb - 0.00 in0.0 mm 0.00 in0.0 mm
01:15 PM 85.6°F29.8°C 68.6°F20.3°C 57% 4.6 mph WSW7.4 kmh WSW 10.4 mph16.7 kmh 29.88 in1011.9 mb - 0.00 in0.0 mm 0.00 in0.0 mm
01:30 PM 85.9°F29.9°C 68.9°F20.5°C 57% 2.3 mph WSW3.7 kmh WSW 3.5 mph5.6 kmh 29.88 in1011.9 mb - 0.00 in0.0 mm 0.00 in0.0 mm
01:45 PM 85.5°F29.7°C 69.1°F20.6°C 58% 3.5 mph WNW5.6 kmh WNW 3.5 mph5.6 kmh 29.88 in1011.9 mb - 0.00 in0.0 mm 0.00 in0.0 mm
02:00 PM 86.2°F30.1°C 69.2°F20.7°C 57% 2.3 mph W3.7 kmh W 3.5 mph5.6 kmh 29.88 in1011.9 mb - 0.00 in0.0 mm 0.00 in0.0 mm
02:15 PM 86.7°F30.4°C 69.7°F20.9°C 57% 3.5 mph NW5.6 kmh NW 6.9 mph11.1 kmh 29.88 in1011.9 mb - 0.00 in0.0 mm 0.00 in0.0 mm
02:30 PM 86.4°F30.2°C 68.4°F20.2°C 55% 5.8 mph WNW9.3 kmh WNW 8.1 mph13.0 kmh 29.88 in1011.9 mb - 0.00 in0.0 mm 0.00 in0.0 mm
02:45 PM 86.1°F30.1°C 69.6°F20.9°C 58% 3.5 mph NNW5.6 kmh NNW 8.1 mph13.0 kmh 29.87 in1011.5 mb - 0.00 in0.0 mm 0.00 in0.0 mm
03:00 PM 87.3°F30.7°C 68.1°F20.1°C 53% 6.9 mph W11.1 kmh W 10.4 mph16.7 kmh 29.87 in1011.5 mb - 0.00 in0.0 mm 0.00 in0.0 mm
03:15 PM 87.3°F30.7°C 68.1°F20.1°C 53% 5.8 mph WNW9.3 kmh WNW 11.5 mph18.5 kmh 29.87 in1011.5 mb - 0.00 in0.0 mm 0.00 in0.0 mm
03:30 PM 86.8°F30.4°C 68.2°F20.1°C 54% 1.2 mph NW1.9 kmh NW 10.4 mph16.7 kmh 29.87 in1011.5 mb - 0.00 in0.0 mm 0.00 in0.0 mm
03:45 PM 87.6°F30.9°C 68.4°F20.2°C 53% 2.3 mph WNW3.7 kmh WNW 6.9 mph11.1 kmh 29.86 in1011.2 mb - 0.00 in0.0 mm 0.00 in0.0 mm
04:00 PM 87.0°F30.6°C 67.2°F19.6°C 52% 3.5 mph WSW5.6 kmh WSW 8.1 mph13.0 kmh 29.86 in1011.2 mb - 0.00 in0.0 mm 0.00 in0.0 mm
04:15 PM 87.5°F30.8°C 67.1°F19.5°C 51% 2.3 mph WSW3.7 kmh WSW 5.8 mph9.3 kmh 29.86 in1011.2 mb - 0.00 in0.0 mm 0.00 in0.0 mm
04:30 PM 86.8°F30.4°C 67.1°F19.5°C 52% 4.6 mph NW7.4 kmh NW 9.2 mph14.8 kmh 29.86 in1011.2 mb - 0.00 in0.0 mm 0.00 in0.0 mm
04:45 PM 87.0°F30.6°C 68.4°F20.2°C 54% 3.5 mph WNW5.6 kmh WNW 8.1 mph13.0 kmh 29.86 in1011.2 mb - 0.00 in0.0 mm 0.00 in0.0 mm
05:00 PM 86.2°F30.1°C 65.9°F18.8°C 51% 3.5 mph WNW5.6 kmh WNW 8.1 mph13.0 kmh 29.86 in1011.2 mb - 0.00 in0.0 mm 0.00 in0.0 mm
05:15 PM 86.3°F30.2°C 67.2°F19.6°C 53% 2.3 mph NW3.7 kmh NW 3.5 mph5.6 kmh 29.86 in1011.2 mb - 0.00 in0.0 mm 0.00 in0.0 mm
05:30 PM 86.5°F30.3°C 67.3°F19.6°C 53% 4.6 mph WSW7.4 kmh WSW 11.5 mph18.5 kmh 29.86 in1011.2 mb - 0.00 in0.0 mm 0.00 in0.0 mm
05:45 PM 85.4°F29.7°C 66.9°F19.4°C 54% 6.9 mph NW11.1 kmh NW 13.8 mph22.2 kmh 29.86 in1011.2 mb - 0.00 in0.0 mm 0.00 in0.0 mm
06:00 PM 85.8°F29.9°C 67.2°F19.6°C 54% 1.2 mph NW1.9 kmh NW 3.5 mph5.6 kmh 29.87 in1011.5 mb - 0.00 in0.0 mm 0.00 in0.0 mm
06:15 PM 85.7°F29.8°C 67.7°F19.8°C 55% 3.5 mph SW5.6 kmh SW 11.5 mph18.5 kmh 29.87 in1011.5 mb - 0.00 in0.0 mm 0.00 in0.0 mm
06:30 PM 85.2°F29.6°C 68.3°F20.2°C 57% 1.2 mph WSW1.9 kmh WSW 9.2 mph14.8 kmh 29.87 in1011.5 mb - 0.00 in0.0 mm 0.00 in0.0 mm
06:45 PM 84.7°F29.3°C 67.3°F19.6°C 56% 2.3 mph SW3.7 kmh SW 3.5 mph5.6 kmh 29.87 in1011.5 mb - 0.00 in0.0 mm 0.00 in0.0 mm
07:00 PM 84.8°F29.3°C 67.9°F19.9°C 57% 3.5 mph WSW5.6 kmh WSW 6.9 mph11.1 kmh 29.88 in1011.9 mb - 0.00 in0.0 mm 0.00 in0.0 mm
07:15 PM 84.3°F29.1°C 69.3°F20.7°C 61% 5.8 mph WSW9.3 kmh WSW 9.2 mph14.8 kmh 29.88 in1011.9 mb - 0.00 in0.0 mm 0.00 in0.0 mm
07:30 PM 83.5°F28.6°C 70.1°F21.2°C 64% 4.6 mph SW7.4 kmh SW 8.1 mph13.0 kmh 29.88 in1011.9 mb - 0.00 in0.0 mm 0.00 in0.0 mm
07:45 PM 83.2°F28.4°C 69.8°F21.0°C 64% 5.8 mph SW9.3 kmh SW 8.1 mph13.0 kmh 29.89 in1012.2 mb - 0.00 in0.0 mm 0.00 in0.0 mm
08:00 PM 82.9°F28.3°C 69.5°F20.8°C 64% 4.6 mph SW7.4 kmh SW 3.5 mph5.6 kmh 29.90 in1012.5 mb - 0.00 in0.0 mm 0.00 in0.0 mm
08:15 PM 82.6°F28.1°C 70.1°F21.2°C 66% 5.8 mph SSW9.3 kmh SSW 10.4 mph16.7 kmh 29.90 in1012.5 mb - 0.00 in0.0 mm 0.00 in0.0 mm
08:30 PM 82.1°F27.8°C 70.0°F21.1°C 67% 2.3 mph SW3.7 kmh SW 3.5 mph5.6 kmh 29.90 in1012.5 mb - 0.00 in0.0 mm 0.00 in0.0 mm
08:45 PM 82.0°F27.8°C 70.0°F21.1°C 67% 4.6 mph WSW7.4 kmh WSW 5.8 mph9.3 kmh 29.91 in1012.9 mb - 0.00 in0.0 mm 0.00 in0.0 mm
09:00 PM 81.8°F27.7°C 70.2°F21.2°C 68% 4.6 mph SSW7.4 kmh SSW 8.1 mph13.0 kmh 29.91 in1012.9 mb - 0.00 in0.0 mm 0.00 in0.0 mm
09:15 PM 81.6°F27.6°C 70.4°F21.3°C 69% 5.8 mph SW9.3 kmh SW 6.9 mph11.1 kmh 29.92 in1013.2 mb - 0.00 in0.0 mm 0.00 in0.0 mm
09:30 PM 81.5°F27.5°C 70.4°F21.3°C 69% 4.6 mph SW7.4 kmh SW 5.8 mph9.3 kmh 29.92 in1013.2 mb - 0.00 in0.0 mm 0.00 in0.0 mm
09:45 PM 81.2°F27.3°C 70.5°F21.4°C 70% 4.6 mph SW7.4 kmh SW 4.6 mph7.4 kmh 29.93 in1013.5 mb - 0.00 in0.0 mm 0.00 in0.0 mm
10:00 PM 81.1°F27.3°C 70.8°F21.6°C 71% 1.2 mph SW1.9 kmh SW 3.5 mph5.6 kmh 29.93 in1013.5 mb - 0.00 in0.0 mm 0.00 in0.0 mm
10:15 PM 80.7°F27.1°C 70.8°F21.6°C 72% 2.3 mph WSW3.7 kmh WSW 3.5 mph5.6 kmh 29.92 in1013.2 mb - 0.00 in0.0 mm 0.00 in0.0 mm
10:30 PM 80.4°F26.9°C 70.9°F21.6°C 73% 1.2 mph SW1.9 kmh SW 2.3 mph3.7 kmh 29.93 in1013.5 mb - 0.00 in0.0 mm 0.00 in0.0 mm
10:45 PM 79.8°F26.6°C 70.8°F21.6°C 74% Calm Calm 2.3 mph3.7 kmh 29.93 in1013.5 mb - 0.00 in0.0 mm 0.00 in0.0 mm
11:00 PM 79.8°F26.6°C 70.8°F21.6°C 74% Calm Calm 1.2 mph1.9 kmh 29.93 in1013.5 mb - 0.00 in0.0 mm 0.00 in0.0 mm
11:15 PM 79.5°F26.4°C 70.5°F21.4°C 74% 1.2 mph SW1.9 kmh SW 1.2 mph1.9 kmh 29.93 in1013.5 mb - 0.00 in0.0 mm 0.00 in0.0 mm
11:30 PM 79.1°F26.2°C 70.5°F21.4°C 75% Calm Calm 1.2 mph1.9 kmh 29.93 in1013.5 mb - 0.00 in0.0 mm 0.00 in0.0 mm
11:45 PM 78.5°F25.8°C 70.3°F21.3°C 76% Calm Calm 2.3 mph3.7 kmh 29.93 in1013.5 mb - 0.00 in0.0 mm 0.00 in0.0 mm